Platzwetter / Webcam

  • Aktuelles Bild
  • Verlauf
  • Verlauf
  • Verlauf
  • Verlauf
  • Verlauf
  • Verlauf
  • Verlauf
  • Verlauf
  • Verlauf
  • Verlauf
  • Verlauf
  • Verlauf
  • Verlauf
  • Verlauf
  • Verlauf
  • Verlauf
  • Verlauf

Flugwetter Linz

[Quelle: ADDS]
METAR
LOWL 280650Z 09005KT 060V120 9999 FEW012 BKN130 20/17 Q1001 NOSIG =
TAF
LOWL 280515Z 2806/2906 09005KT 9999 FEW040 SCT130 BKN300 TX30/2812Z TN17/2903Z BECMG 2811/2813 27005KT PROB40 TEMPO 2812/2816 24012G22KT 5000 TSRA SCT040CB BKN070 TEMPO 2819/2906 24012KT 8000 SHRA FEW040CB BKN060 PROB30 TEMPO 2900/2906 30013G23KT 4000 TSRA SCT030CB BKN040 =

Flugwetter Salzburg

[Quelle: ADDS]
METAR
LOWS 280650Z 19006KT 9999 FEW070 BKN130 22/15 Q1001 NOSIG =
TAF
LOWS 280515Z 2806/2906 15010KT 9999 FEW060 BKN120 TX29/2814Z TN15/2903Z BECMG 2806/2808 15004KT FEW060 BECMG 2808/2810 33006KT TEMPO 2813/2822 18012G25KT 8000 TSRA SCT050CB BKN060 FM282200 32005KT 9999 -SHRA SCT035 BKN060 TEMPO 2822/2904 30012G25KT 6000 TSRA SCT020CB BKN035 =

Fliegen lernen

Die Fliegerschule der WMW...

Termine & Events

Alle Termine anzeigen...

Mietwagen

am Flugplatz Wels 
Toyota Aygo 1.0 VVTi 5tg.

1/2 Tag      25,- Euro
1 Tag   50,- Euro
Wochenende   100,- Euro

Weitere Infos...

+++ Aktuelle Spritpreise (24.04.2017): | Jet A-1 € 1,340 | Super Plus 98 ETBE € 1,418 | Avgas 100LL € 1,992 | +++